Skip Navigation Links
NOAA logo - Click to go to the NOAA homepage
NOAA's National Weather Service
Alaska Aviation Weather Unit
  NWS logo - Click to go to the NWS homepage
Left Navbar Graphic     03 AKDT = 11 GMT

   
NOAA is celebrating 200 years of science, service, and stewardship. Visit the NOAA 200th celebration Web site to learn more.
USA.gov is the U.S. Government's official Web portal to all Federal, state and local government Web resources and services.
Facebook
NWS on Facebook

Important Change Regarding the AAWU Web Presence

 

Over the last several months, the AAWU has been working to navigate its webpages to a nationally supported server. Security, as well as other needs, have necessitated the change.  We have been given an extension for the site changeover while we diligently work at addressing feedback received. As of July 14, 2017, aawu.arh.noaa.gov will be discontinued. The new AAWU web address is weather.gov/aawu. It is now live and will run in-parallel with the old site until it is discontinued on July 14, 2017. Please continue to send any feedback or questions regarding the new webpages to nws.ar.aawu.webauthors@noaa.gov.  Thank you for your patience during this time of transition.
AAWU Home :: Display TAF Add Bookmark
PALU 230519Z AUTO 02014KT 10SM -SHRA OVC008 08/07 A2971=

PALU 230539Z AUTO 02013KT 10SM OVC009 08/07 A2971=

METAR PALU 230555Z AUTO 03013KT 10SM OVC010 08/06 A2972=

PALU 230619Z AUTO 03015KT 10SM OVC011 08/06 A2972=

METAR PALU 230655Z AUTO 05011KT 10SM BKN011 07/06 A2973=

METAR PALU 230755Z AUTO 03015KT 10SM OVC010 07/06 A2973=

PALU 230839Z AUTO 02015KT 10SM OVC011 07/05 A2974=

METAR PALU 230855Z AUTO 03012KT 10SM OVC011 07/05 A2974=

PALU 230939Z AUTO 03010KT 10SM OVC012 07/04 A2974=

METAR PALU 230955Z AUTO 04012KT 10SM OVC013 07/05 A2974=

PALU 231019Z AUTO 03016KT 10SM OVC011 07/05 A2974=

METAR PALU 231055Z AUTO 03015KT 10SM BKN010 06/05 A2975=

PALU 231119Z AUTO 03015KT 10SM OVC011 06/04 A2975=


NOAA's National Weather Service
Alaska Aviation Weather Unit
6930 Sand Lake Road
Anchorage, AK 99502-1845
Disclaimer
Credits
Glossary
Privacy Policy
About Us
Career Opportunities
Contact AAWU Internet Services Site last modified: April, 17th 2012